createdAt,value
2017-07-24T00:00:09.495Z,100051.57
2017-07-24T00:02:38.594Z,100052.14
2017-07-24T00:05:07.828Z,100044.41
2017-07-24T00:07:36.903Z,100038.27
2017-07-24T00:10:06.005Z,100035.89
2017-07-24T00:12:35.060Z,100034.83
2017-07-24T00:15:04.145Z,100027.90
2017-07-24T00:17:33.209Z,100033.58
2017-07-24T00:20:02.279Z,100022.95
2017-07-24T00:22:31.348Z,100022.66
2017-07-24T00:25:00.432Z,100018.29
2017-07-24T00:27:29.475Z,100009.84
2017-07-24T00:29:58.541Z,100003.96
2017-07-24T00:32:28.351Z,100002.19
2017-07-24T00:34:58.194Z,100003.76
2017-07-24T00:37:27.455Z,100000.02
2017-07-24T00:39:56.634Z,100001.53
2017-07-24T00:42:25.764Z,99998.18
2017-07-24T00:44:55.581Z,99995.83
2017-07-24T00:47:25.412Z,99992.47
2017-07-24T00:49:54.547Z,99991.48
2017-07-24T00:52:23.580Z,99992.48
2017-07-24T00:54:52.639Z,99983.47
2017-07-24T00:57:21.692Z,99982.08
2017-07-24T00:59:50.769Z,99979.16
2017-07-24T01:02:20.968Z,99973.47
2017-07-24T01:04:50.019Z,99972.64
2017-07-24T01:07:19.067Z,99973.66
2017-07-24T01:09:48.880Z,99968.94
2017-07-24T01:12:17.989Z,99969.35
2017-07-24T01:14:47.004Z,99963.28
2017-07-24T01:17:16.096Z,99960.52
2017-07-24T01:19:46.108Z,99954.05
2017-07-24T01:22:15.180Z,99945.83
2017-07-24T01:24:44.212Z,99946.22
2017-07-24T01:27:13.313Z,99950.58
2017-07-24T01:29:42.393Z,99945.29
2017-07-24T01:32:11.439Z,99939.98
2017-07-24T01:34:40.517Z,99945.11
2017-07-24T01:37:09.961Z,99938.44
2017-07-24T01:39:39.794Z,99939.80
2017-07-24T01:42:08.857Z,99929.55
2017-07-24T01:44:37.915Z,99928.75
2017-07-24T01:47:07.014Z,99926.59
2017-07-24T01:49:36.113Z,99922.28
2017-07-24T01:52:05.184Z,99923.47
2017-07-24T01:54:34.233Z,99924.03
2017-07-24T01:57:03.346Z,99917.19
2017-07-24T01:59:32.511Z,99917.79
2017-07-24T02:02:01.580Z,99914.88
2017-07-24T02:04:30.635Z,99910.20
2017-07-24T02:06:59.671Z,99904.70
2017-07-24T02:09:28.727Z,99902.14
2017-07-24T02:11:57.797Z,99899.55
2017-07-24T02:14:26.863Z,99898.36
2017-07-24T02:16:55.903Z,99890.33
2017-07-24T02:19:25.765Z,99894.09
2017-07-24T02:21:54.805Z,99893.70
2017-07-24T02:24:24.624Z,99886.84
2017-07-24T02:26:53.667Z,99893.45
2017-07-24T02:29:22.734Z,99891.27
2017-07-24T02:31:51.808Z,99892.98
2017-07-24T02:34:21.612Z,99887.15
2017-07-24T02:36:50.706Z,99886.95
2017-07-24T02:39:19.734Z,99883.77
2017-07-24T02:41:48.801Z,99881.86
2017-07-24T02:44:17.839Z,99879.91
2017-07-24T02:46:46.887Z,99882.66
2017-07-24T02:49:16.715Z,99881.29
2017-07-24T02:51:45.781Z,99879.05
2017-07-24T02:54:14.854Z,99881.99
2017-07-24T02:56:43.902Z,99879.44
2017-07-24T02:59:13.739Z,99882.56
2017-07-24T03:01:42.796Z,99880.55
2017-07-24T03:04:12.761Z,99878.57
2017-07-24T03:06:41.775Z,99884.83
2017-07-24T03:09:10.862Z,99878.37
2017-07-24T03:11:39.917Z,99874.47
2017-07-24T03:14:09.153Z,99880.52
2017-07-24T03:16:38.241Z,99884.55
2017-07-24T03:19:07.540Z,99878.40
2017-07-24T03:21:36.651Z,99881.09
2017-07-24T03:24:05.738Z,99876.09
2017-07-24T03:26:34.829Z,99877.98
2017-07-24T03:29:03.907Z,99868.19
2017-07-24T03:31:33.165Z,99874.04
2017-07-24T03:34:02.209Z,99871.24
2017-07-24T03:36:31.269Z,99871.20
2017-07-24T03:39:00.345Z,99877.42
2017-07-24T03:41:29.411Z,99872.27
2017-07-24T03:43:58.453Z,99868.50
2017-07-24T03:46:27.520Z,99865.74
2017-07-24T03:48:56.570Z,99862.59
2017-07-24T03:51:25.640Z,99865.31
2017-07-24T03:53:54.692Z,99864.09
2017-07-24T03:56:23.788Z,99861.68
2017-07-24T03:58:52.884Z,99866.17
2017-07-24T04:01:21.943Z,99875.38
2017-07-24T04:03:51.005Z,99864.70
2017-07-24T04:06:20.072Z,99864.22
2017-07-24T04:08:49.145Z,99866.92
2017-07-24T04:11:18.185Z,99867.06
2017-07-24T04:13:48.008Z,99864.28
2017-07-24T04:16:17.840Z,99854.61
2017-07-24T04:18:46.908Z,99854.36
2017-07-24T04:21:16.733Z,99852.20
2017-07-24T04:23:45.775Z,99850.98
2017-07-24T04:26:14.837Z,99852.69
2017-07-24T04:28:43.894Z,99841.15
2017-07-24T04:31:12.958Z,99844.47
2017-07-24T04:33:42.013Z,99844.09
2017-07-24T04:36:11.088Z,99839.22
2017-07-24T04:38:40.956Z,99836.34
2017-07-24T04:41:10.016Z,99836.50
2017-07-24T04:43:39.086Z,99835.52
2017-07-24T04:46:08.137Z,99829.13
2017-07-24T04:48:37.196Z,99829.73
2017-07-24T04:51:06.991Z,99822.11
2017-07-24T04:53:36.808Z,99824.25
2017-07-24T04:56:06.668Z,99829.11
2017-07-24T04:58:35.700Z,99828.33
2017-07-24T05:01:04.779Z,99823.66
2017-07-24T05:03:33.829Z,99822.95
2017-07-24T05:06:02.879Z,99820.63
2017-07-24T05:08:31.964Z,99819.63
2017-07-24T05:11:01.010Z,99811.52
2017-07-24T05:13:30.083Z,99812.97
2017-07-24T05:15:59.987Z,99808.46
2017-07-24T05:18:29.035Z,99804.50
2017-07-24T05:20:58.083Z,99811.03
2017-07-24T05:23:27.904Z,99808.31
2017-07-24T05:25:57.731Z,99810.25
2017-07-24T05:28:26.796Z,99811.03
2017-07-24T05:30:55.855Z,99819.47
2017-07-24T05:33:24.905Z,99808.70
2017-07-24T05:35:53.981Z,99816.55
2017-07-24T05:38:23.045Z,99809.09
2017-07-24T05:40:52.105Z,99811.23
2017-07-24T05:43:21.179Z,99813.07
2017-07-24T05:45:50.243Z,99808.77
2017-07-24T05:48:19.324Z,99806.23
2017-07-24T05:50:48.356Z,99809.35
2017-07-24T05:53:18.226Z,99815.19
2017-07-24T05:55:47.284Z,99815.54
2017-07-24T05:58:16.329Z,99813.98
2017-07-24T06:00:46.145Z,99813.98
2017-07-24T06:03:15.849Z,99805.77
2017-07-24T06:05:44.923Z,99806.81
2017-07-24T06:08:13.994Z,99809.16
2017-07-24T06:10:43.055Z,99806.64
2017-07-24T06:13:12.132Z,99807.13
2017-07-24T06:15:41.172Z,99807.95
2017-07-24T06:18:10.550Z,99803.66
2017-07-24T06:20:39.593Z,99804.48
2017-07-24T06:23:08.644Z,99802.67
2017-07-24T06:25:38.452Z,99799.15
2017-07-24T06:28:08.303Z,99803.07
2017-07-24T06:30:37.395Z,99804.68
2017-07-24T06:33:06.459Z,99802.14
2017-07-24T06:35:36.280Z,99799.60
2017-07-24T06:38:06.100Z,99798.84
2017-07-24T06:40:35.199Z,99797.85
2017-07-24T06:43:04.272Z,99795.90
2017-07-24T06:45:33.320Z,99791.45
2017-07-24T06:48:02.451Z,99793.06
2017-07-24T06:50:31.522Z,99793.13
2017-07-24T06:53:00.622Z,99794.19
2017-07-24T06:55:29.679Z,99792.70
2017-07-24T06:57:58.768Z,99792.54
2017-07-24T07:00:27.816Z,99791.73
2017-07-24T07:02:56.865Z,99791.16
2017-07-24T07:05:25.953Z,99796.66
2017-07-24T07:07:54.991Z,99797.88
2017-07-24T07:10:24.085Z,99794.55
2017-07-24T07:12:53.105Z,99797.30
2017-07-24T07:15:22.142Z,99800.05
2017-07-24T07:17:51.203Z,99794.16
2017-07-24T07:20:21.332Z,99796.93
2017-07-24T07:22:51.160Z,99791.25
2017-07-24T07:25:20.687Z,99792.08
2017-07-24T07:27:49.770Z,99795.44
2017-07-24T07:30:18.840Z,99786.69
2017-07-24T07:32:48.656Z,99788.51
2017-07-24T07:35:18.712Z,99792.57
2017-07-24T07:37:47.774Z,99789.64
2017-07-24T07:40:16.903Z,99788.64
2017-07-24T07:42:45.919Z,99793.41
2017-07-24T07:45:15.762Z,99791.09
2017-07-24T07:47:44.865Z,99788.51
2017-07-24T07:50:14.691Z,99781.48
2017-07-24T07:52:44.813Z,99791.67
2017-07-24T07:55:14.657Z,99790.50
2017-07-24T07:57:43.901Z,99784.09
2017-07-24T08:00:12.980Z,99785.08
2017-07-24T08:02:42.016Z,99781.88
2017-07-24T08:05:11.117Z,99782.78
2017-07-24T08:07:40.882Z,99784.33
2017-07-24T08:10:09.956Z,99779.96
2017-07-24T08:12:39.032Z,99778.36
2017-07-24T08:15:08.218Z,99780.50
2017-07-24T08:17:37.295Z,99782.23
2017-07-24T08:20:07.121Z,99787.13
2017-07-24T08:22:39.856Z,99781.83
2017-07-24T08:25:16.613Z,99785.22
2017-07-24T08:27:48.852Z,99787.59
2017-07-24T08:30:17.966Z,99778.59
2017-07-24T08:32:47.044Z,99779.04
2017-07-24T08:35:16.095Z,99776.36
2017-07-24T08:37:45.886Z,99782.24
2017-07-24T08:40:14.944Z,99785.59
2017-07-24T08:42:45.472Z,99792.70
2017-07-24T08:45:14.546Z,99786.64
2017-07-24T08:47:45.040Z,99782.86
2017-07-24T08:50:14.917Z,99788.51
2017-07-24T08:52:44.016Z,99783.44
2017-07-24T08:55:13.050Z,99783.75
2017-07-24T08:57:42.108Z,99788.55
2017-07-24T09:00:14.637Z,99790.32
2017-07-24T09:02:43.693Z,99794.63
2017-07-24T09:05:13.506Z,99794.90
2017-07-24T09:07:43.265Z,99797.91
2017-07-24T09:10:13.093Z,99791.93
2017-07-24T09:12:42.164Z,99787.87
2017-07-24T09:21:08.894Z,99790.88
2017-07-24T09:23:37.980Z,99785.84
2017-07-24T09:26:07.110Z,99787.66
2017-07-24T09:28:36.973Z,99787.13
2017-07-24T09:31:06.078Z,99786.34
2017-07-24T09:33:35.149Z,99786.05
2017-07-24T09:36:04.193Z,99783.77
2017-07-24T09:38:33.256Z,99785.08
2017-07-24T09:41:03.287Z,99784.68
2017-07-24T09:43:33.499Z,99781.41
2017-07-24T09:46:04.165Z,99782.20
2017-07-24T09:48:33.480Z,99784.27
2017-07-24T09:51:02.572Z,99781.19
2017-07-24T09:53:31.652Z,99783.98
2017-07-24T09:56:00.736Z,99783.25
2017-07-24T09:58:29.784Z,99781.63
2017-07-24T10:00:59.171Z,99781.72
2017-07-24T10:03:28.256Z,99779.89
2017-07-24T10:05:57.349Z,99780.69
2017-07-24T10:08:26.543Z,99774.05
2017-07-24T10:10:55.580Z,99779.77
2017-07-24T10:13:25.419Z,99780.34
2017-07-24T10:15:54.476Z,99783.44
2017-07-24T10:18:24.287Z,99784.88
2017-07-24T10:20:54.113Z,99786.20
2017-07-24T10:23:24.300Z,99788.39
2017-07-24T10:25:53.343Z,99789.31
2017-07-24T10:28:22.406Z,99783.90
2017-07-24T10:30:51.458Z,99789.58
2017-07-24T10:33:20.610Z,99787.13
2017-07-24T10:35:49.727Z,99783.20
2017-07-24T10:38:19.055Z,99778.38
2017-07-24T10:40:48.119Z,99780.81
2017-07-24T10:43:17.243Z,99777.21
2017-07-24T10:45:46.296Z,99781.81
2017-07-24T10:48:16.167Z,99775.62
2017-07-24T10:50:45.224Z,99775.39
2017-07-24T10:53:14.322Z,99777.42
2017-07-24T10:55:43.367Z,99775.30
2017-07-24T10:58:12.477Z,99779.58
2017-07-24T11:00:41.527Z,99778.48
2017-07-24T11:03:10.677Z,99775.05
2017-07-24T11:05:39.732Z,99771.69
2017-07-24T11:08:08.821Z,99772.73
2017-07-24T11:10:37.903Z,99769.55
2017-07-24T11:13:07.224Z,99770.97
2017-07-24T11:15:36.272Z,99773.73
2017-07-24T11:18:05.367Z,99773.39
2017-07-24T11:20:34.454Z,99773.05
2017-07-24T11:23:04.255Z,99773.00
2017-07-24T11:25:34.085Z,99773.52
2017-07-24T11:28:04.164Z,99768.55
2017-07-24T11:30:33.241Z,99768.30
2017-07-24T11:33:02.316Z,99770.39
2017-07-24T11:35:31.468Z,99765.27
2017-07-24T11:38:00.563Z,99763.38
2017-07-24T11:40:30.442Z,99763.50
2017-07-24T11:42:59.561Z,99755.56
2017-07-24T11:45:28.600Z,99760.48
2017-07-24T11:47:57.694Z,99757.73
2017-07-24T11:50:26.769Z,99762.07
2017-07-24T11:52:55.840Z,99757.69
2017-07-24T11:55:25.529Z,99754.47
2017-07-24T11:57:54.624Z,99761.59
2017-07-24T12:00:23.680Z,99758.47
2017-07-24T12:02:53.499Z,99758.75
2017-07-24T12:05:22.551Z,99760.18
2017-07-24T12:07:51.645Z,99761.75
2017-07-24T12:10:20.933Z,99764.30
2017-07-24T12:12:49.999Z,99773.39
2017-07-24T12:15:19.068Z,99768.84
2017-07-24T12:17:48.425Z,99765.16
2017-07-24T12:20:17.491Z,99769.89
2017-07-24T12:22:47.079Z,99770.08
2017-07-24T12:25:16.885Z,99774.83
2017-07-24T12:27:45.958Z,99772.58
2017-07-24T12:30:15.353Z,99780.36
2017-07-24T12:32:44.440Z,99776.23
2017-07-24T12:35:13.497Z,99768.78
2017-07-24T12:37:46.687Z,99768.52
2017-07-24T12:43:47.893Z,99763.61
2017-07-24T12:46:16.967Z,99760.19
2017-07-24T12:48:46.955Z,99763.56
2017-07-24T13:00:32.432Z,99763.71
2017-07-24T13:03:01.491Z,99756.30
2017-07-24T13:05:30.563Z,99753.59
2017-07-24T13:08:00.866Z,99757.01
2017-07-24T13:10:29.946Z,99754.91
2017-07-24T13:12:59.107Z,99752.39
2017-07-24T13:15:28.317Z,99756.55
2017-07-24T13:17:57.472Z,99756.95
2017-07-24T13:20:27.356Z,99758.72
2017-07-24T13:22:56.428Z,99759.34
2017-07-24T13:25:25.532Z,99760.32
2017-07-24T13:27:54.585Z,99760.52
2017-07-24T13:30:24.472Z,99766.41
2017-07-24T13:32:54.404Z,99757.98
2017-07-24T13:35:24.268Z,99756.47
2017-07-24T13:37:53.321Z,99758.02
2017-07-24T13:40:23.920Z,99753.88
2017-07-24T13:45:31.133Z,99759.78
2017-07-24T13:48:00.168Z,99770.99
2017-07-24T13:50:29.256Z,99769.45
2017-07-24T13:52:58.306Z,99759.86
2017-07-24T13:55:27.366Z,99765.97
2017-07-24T13:57:56.425Z,99766.17
2017-07-24T14:00:26.239Z,99764.36
2017-07-24T14:02:56.149Z,99766.52
2017-07-24T14:05:25.193Z,99760.45
2017-07-24T14:07:54.286Z,99758.09
2017-07-24T14:10:23.395Z,99765.19
2017-07-24T14:12:52.444Z,99765.02
2017-07-24T14:15:21.509Z,99763.20
2017-07-24T14:17:50.555Z,99764.36
2017-07-24T14:20:19.610Z,99769.25
2017-07-24T14:22:49.448Z,99776.53
2017-07-24T14:25:18.522Z,99774.34
2017-07-24T14:28:08.176Z,99772.01
2017-07-24T14:30:37.225Z,99776.50
2017-07-24T14:33:06.311Z,99774.11
2017-07-24T14:35:35.336Z,99774.86
2017-07-24T14:38:04.428Z,99780.77
2017-07-24T14:40:33.482Z,99777.98
2017-07-24T14:43:02.523Z,99777.62
2017-07-24T14:45:31.598Z,99778.93
2017-07-24T14:48:00.651Z,99776.89
2017-07-24T14:50:29.730Z,99776.17
2017-07-24T14:52:58.777Z,99780.89
2017-07-24T14:55:27.836Z,99783.14
2017-07-24T14:57:56.895Z,99785.47
2017-07-24T15:00:25.957Z,99791.98
2017-07-24T15:02:55.156Z,99788.36
2017-07-24T15:05:24.224Z,99791.91
2017-07-24T15:07:53.255Z,99792.17
2017-07-24T15:10:22.363Z,99791.78
2017-07-24T15:12:51.442Z,99790.96
2017-07-24T15:15:20.507Z,99782.27
2017-07-24T15:17:49.568Z,99784.78
2017-07-24T15:20:18.652Z,99780.25
2017-07-24T15:22:47.698Z,99783.16
2017-07-24T15:25:16.763Z,99782.37
2017-07-24T15:27:45.839Z,99775.50
2017-07-24T15:30:14.878Z,99770.99
2017-07-24T15:32:44.047Z,99769.46
2017-07-24T15:35:13.403Z,99769.66
2017-07-24T15:37:42.440Z,99768.62
2017-07-24T15:40:11.585Z,99765.44
2017-07-24T15:42:40.603Z,99772.30
2017-07-24T15:45:09.665Z,99770.69
2017-07-24T15:47:38.699Z,99768.92
2017-07-24T15:50:07.759Z,99773.24
2017-07-24T15:52:36.833Z,99775.60
2017-07-24T15:55:05.924Z,99772.35
2017-07-24T15:57:34.955Z,99776.72
2017-07-24T16:00:04.100Z,99775.39
2017-07-24T16:02:33.178Z,99776.62
2017-07-24T16:05:02.228Z,99769.58
2017-07-24T16:07:31.313Z,99778.55
2017-07-24T16:10:00.368Z,99781.17
2017-07-24T16:12:29.420Z,99785.97
2017-07-24T16:14:58.471Z,99788.95
2017-07-24T16:17:27.516Z,99787.02
2017-07-24T16:19:56.560Z,99797.59
2017-07-24T16:22:25.625Z,99791.15
2017-07-24T16:24:54.673Z,99803.50
2017-07-24T16:27:23.724Z,99793.70
2017-07-24T16:29:52.766Z,99800.73
2017-07-24T16:32:21.827Z,99796.52
2017-07-24T16:34:50.893Z,99803.54
2017-07-24T16:37:19.984Z,99801.58
2017-07-24T16:39:49.040Z,99807.77
2017-07-24T16:42:18.127Z,99807.66
2017-07-24T16:44:47.213Z,99805.45
2017-07-24T16:47:16.285Z,99814.55
2017-07-24T16:49:45.339Z,99809.58
2017-07-24T16:52:14.725Z,99810.52
2017-07-24T16:54:43.756Z,99817.77
2017-07-24T16:57:12.799Z,99812.78
2017-07-24T16:59:41.863Z,99813.53
2017-07-24T17:02:10.935Z,99822.32
2017-07-24T17:04:39.956Z,99825.31
2017-07-24T17:07:09.095Z,99819.73
2017-07-24T17:09:38.163Z,99824.00
2017-07-24T17:12:07.263Z,99818.91
2017-07-24T17:14:36.324Z,99819.20
2017-07-24T17:17:05.513Z,99811.00
2017-07-24T17:19:34.584Z,99815.56
2017-07-24T17:22:03.689Z,99810.86
2017-07-24T17:24:32.747Z,99798.20
2017-07-24T17:27:01.808Z,99802.44
2017-07-24T17:29:30.859Z,99806.01
2017-07-24T17:31:59.928Z,99801.45
2017-07-24T17:34:29.052Z,99812.23
2017-07-24T17:36:58.277Z,99814.47
2017-07-24T17:39:27.319Z,99818.25
2017-07-24T17:41:56.378Z,99816.39
2017-07-24T17:44:25.425Z,99812.51
2017-07-24T17:46:54.493Z,99811.56
2017-07-24T17:49:23.578Z,99812.99
2017-07-24T17:51:52.635Z,99812.70
2017-07-24T17:54:21.699Z,99815.33
2017-07-24T17:56:50.863Z,99818.09
2017-07-24T17:59:19.922Z,99818.97
2017-07-24T18:01:49.005Z,99818.27
2017-07-24T18:04:18.074Z,99824.08
2017-07-24T18:06:47.125Z,99834.22
2017-07-24T18:09:16.232Z,99820.31
2017-07-24T18:11:45.273Z,99830.77
2017-07-24T18:14:14.360Z,99834.86
2017-07-24T18:16:43.405Z,99830.20
2017-07-24T18:19:12.485Z,99836.89
2017-07-24T18:21:41.538Z,99842.97
2017-07-24T18:24:10.632Z,99842.84
2017-07-24T18:26:39.650Z,99845.72
2017-07-24T18:29:08.822Z,99853.09
2017-07-24T18:31:37.912Z,99853.09
2017-07-24T18:34:06.997Z,99851.77
2017-07-24T18:36:36.044Z,99857.34
2017-07-24T18:39:05.087Z,99863.92
2017-07-24T18:41:34.135Z,99862.16
2017-07-24T18:44:03.215Z,99863.05
2017-07-24T18:46:32.273Z,99868.02
2017-07-24T18:49:01.300Z,99860.66
2017-07-24T18:51:30.372Z,99863.58
2017-07-24T18:53:59.431Z,99865.13
2017-07-24T18:56:28.488Z,99869.63
2017-07-24T18:58:57.561Z,99866.53
2017-07-24T19:01:26.604Z,99864.86
2017-07-24T19:03:55.694Z,99863.00
2017-07-24T19:06:24.752Z,99850.72
2017-07-24T19:08:53.816Z,99860.38
2017-07-24T19:11:22.897Z,99863.04
2017-07-24T19:13:52.061Z,99867.36
2017-07-24T19:16:21.091Z,99865.50
2017-07-24T19:18:50.295Z,99867.83
2017-07-24T19:21:19.356Z,99874.83
2017-07-24T19:23:48.468Z,99874.30
2017-07-24T19:26:17.573Z,99875.44
2017-07-24T19:28:46.602Z,99873.06
2017-07-24T19:31:15.637Z,99870.53
2017-07-24T19:33:44.712Z,99869.98
2017-07-24T19:36:13.834Z,99873.45
2017-07-24T19:38:42.875Z,99876.61
2017-07-24T19:41:11.927Z,99879.95
2017-07-24T19:43:41.010Z,99877.61
2017-07-24T19:46:10.044Z,99884.26
2017-07-24T19:48:39.137Z,99884.35
2017-07-24T19:51:08.194Z,99886.49
2017-07-24T19:53:37.346Z,99891.91
2017-07-24T19:56:06.450Z,99889.25
2017-07-24T19:58:35.468Z,99885.41
2017-07-24T20:01:04.522Z,99894.59
2017-07-24T20:03:33.584Z,99892.62
2017-07-24T20:06:02.702Z,99889.83
2017-07-24T20:08:31.756Z,99888.84
2017-07-24T20:11:00.960Z,99889.09
2017-07-24T20:13:30.003Z,99886.77
2017-07-24T20:15:59.114Z,99890.45
2017-07-24T20:18:28.192Z,99886.16
2017-07-24T20:20:57.268Z,99883.74
2017-07-24T20:23:26.559Z,99881.38
2017-07-24T20:25:55.740Z,99885.67
2017-07-24T20:28:24.795Z,99888.78
2017-07-24T20:30:53.890Z,99886.27
2017-07-24T20:33:22.939Z,99879.02
2017-07-24T20:35:52.048Z,99884.86
2017-07-24T20:38:21.176Z,99889.09
2017-07-24T20:40:50.224Z,99889.23
2017-07-24T20:43:19.339Z,99887.47
2017-07-24T20:45:48.400Z,99889.86
2017-07-24T20:48:17.496Z,99884.03
2017-07-24T20:50:46.543Z,99892.91
2017-07-24T20:53:15.631Z,99895.66
2017-07-24T20:55:44.996Z,99889.61
2017-07-24T20:58:14.193Z,99890.30
2017-07-24T21:00:43.233Z,99895.27
2017-07-24T21:03:12.426Z,99895.73
2017-07-24T21:05:41.511Z,99894.45
2017-07-24T21:08:10.560Z,99895.94
2017-07-24T21:10:39.635Z,99897.30
2017-07-24T21:13:08.685Z,99900.88
2017-07-24T21:15:37.746Z,99897.43
2017-07-24T21:18:06.803Z,99897.38
2017-07-24T21:20:35.879Z,99893.84
2017-07-24T21:23:04.960Z,99889.55
2017-07-24T21:25:34.032Z,99893.34
2017-07-24T21:28:03.109Z,99890.45
2017-07-24T21:30:32.205Z,99883.47
2017-07-24T21:33:01.273Z,99889.63
2017-07-24T21:35:30.352Z,99889.30
2017-07-24T21:37:59.456Z,99891.44
2017-07-24T21:40:28.521Z,99890.72
2017-07-24T21:42:57.612Z,99891.51
2017-07-24T21:45:26.704Z,99895.80
2017-07-24T21:47:55.787Z,99894.44
2017-07-24T21:50:24.879Z,99894.73
2017-07-24T21:52:53.928Z,99889.95
2017-07-24T21:55:23.034Z,99894.13
2017-07-24T21:57:52.082Z,99899.45
2017-07-24T22:00:21.204Z,99905.02
2017-07-24T22:02:50.279Z,99905.88
2017-07-24T22:05:19.483Z,99903.61
2017-07-24T22:07:48.535Z,99892.73
2017-07-24T22:10:17.634Z,99901.61
2017-07-24T22:12:46.684Z,99898.47
2017-07-24T22:15:15.942Z,99895.31
2017-07-24T22:17:45.008Z,99905.59
2017-07-24T22:20:14.136Z,99893.09
2017-07-24T22:22:43.175Z,99904.53
2017-07-24T22:25:12.471Z,99901.96
2017-07-24T22:27:41.544Z,99900.77
2017-07-24T22:30:10.642Z,99900.67
2017-07-24T22:32:39.740Z,99891.45
2017-07-24T22:35:08.811Z,99883.34
2017-07-24T22:37:37.919Z,99885.19
2017-07-24T22:40:06.970Z,99891.11
2017-07-24T22:42:36.074Z,99885.41
2017-07-24T22:45:05.136Z,99882.26
2017-07-24T22:47:34.195Z,99881.80
2017-07-24T22:50:03.304Z,99887.32
2017-07-24T22:52:32.346Z,99890.73
2017-07-24T22:55:01.399Z,99887.00
2017-07-24T22:57:30.492Z,99889.63
2017-07-24T22:59:59.546Z,99897.16
2017-07-24T23:02:28.632Z,99893.57
2017-07-24T23:04:57.708Z,99897.84
2017-07-24T23:07:26.751Z,99890.69
2017-07-24T23:09:55.864Z,99893.89
2017-07-24T23:12:24.912Z,99895.97
2017-07-24T23:14:53.965Z,99893.95
2017-07-24T23:17:23.002Z,99893.38
2017-07-24T23:19:52.127Z,99891.95
2017-07-24T23:22:21.187Z,99893.22
2017-07-24T23:24:50.251Z,99897.02
2017-07-24T23:27:19.328Z,99886.95
2017-07-24T23:29:48.395Z,99894.02
2017-07-24T23:32:20.381Z,99889.93
2017-07-24T23:34:49.428Z,99894.04
2017-07-24T23:37:18.520Z,99892.27
2017-07-24T23:39:47.555Z,99894.75
2017-07-24T23:42:16.627Z,99896.81
2017-07-24T23:44:45.715Z,99888.80
2017-07-24T23:47:14.803Z,99888.48
2017-07-24T23:49:43.833Z,99898.56
2017-07-24T23:52:12.909Z,99899.45
2017-07-24T23:54:41.981Z,99889.17
2017-07-24T23:57:11.061Z,99888.72
2017-07-24T23:59:40.123Z,99886.11
